createdAt,value
2023-04-18T00:00:35.329Z,83.01
2023-04-18T00:01:35.234Z,83.22
2023-04-18T00:02:35.345Z,83.32
2023-04-18T00:03:35.390Z,83.53
2023-04-18T00:04:35.239Z,83.42
2023-04-18T00:05:35.010Z,83.63
2023-04-18T00:06:34.934Z,83.63
2023-04-18T00:07:34.895Z,83.63
2023-04-18T00:08:34.798Z,83.63
2023-04-18T00:09:34.751Z,83.73
2023-04-18T00:10:34.716Z,83.63
2023-04-18T00:11:34.637Z,83.53
2023-04-18T00:12:34.574Z,83.56
2023-04-18T00:13:34.505Z,83.77
2023-04-18T00:14:34.449Z,83.87
2023-04-18T00:15:34.390Z,83.63
2023-04-18T00:16:34.332Z,83.53
2023-04-18T00:17:34.307Z,83.47
2023-04-18T00:18:34.171Z,83.67
2023-04-18T00:19:34.134Z,83.77
2023-04-18T00:20:34.063Z,83.53
2023-04-18T00:21:33.999Z,83.67
2023-04-18T00:22:33.944Z,83.56
2023-04-18T00:23:33.908Z,83.77
2023-04-18T00:24:33.842Z,83.87
2023-04-18T00:25:33.751Z,83.87
2023-04-18T00:26:33.657Z,83.87
2023-04-18T00:27:33.631Z,83.98
2023-04-18T00:29:42.771Z,83.77
2023-04-18T00:30:43.821Z,83.56
2023-04-18T00:31:43.642Z,83.47
2023-04-18T00:32:43.665Z,83.56
2023-04-18T00:33:43.530Z,83.56
2023-04-18T00:34:43.513Z,83.56
2023-04-18T00:35:43.440Z,83.47
2023-04-18T00:36:43.348Z,83.67
2023-04-18T00:37:43.277Z,83.56
2023-04-18T00:38:43.261Z,83.47
2023-04-18T00:39:43.127Z,83.67
2023-04-18T00:40:43.110Z,83.67
2023-04-18T00:41:43.030Z,83.56
2023-04-18T00:42:42.947Z,83.67
2023-04-18T00:43:42.928Z,83.56
2023-04-18T00:44:42.810Z,83.56
2023-04-18T00:45:42.774Z,83.56
2023-04-18T00:47:03.698Z,83.47
2023-04-18T00:47:42.660Z,83.56
2023-04-18T00:48:42.585Z,83.67
2023-04-18T00:49:42.511Z,83.67
2023-04-18T00:50:42.430Z,83.36
2023-04-18T00:51:42.432Z,83.26
2023-04-18T00:52:42.337Z,83.26
2023-04-18T00:53:42.268Z,83.15
2023-04-18T00:54:42.204Z,83.05
2023-04-18T00:55:42.164Z,83.15
2023-04-18T00:56:42.120Z,83.36
2023-04-18T00:57:42.019Z,83.47
2023-04-18T01:02:09.662Z,83.67
2023-04-18T01:03:10.865Z,83.56
2023-04-18T01:04:10.504Z,83.36
2023-04-18T01:05:10.399Z,83.77
2023-04-18T01:06:10.375Z,84.08
2023-04-18T01:07:11.149Z,84.12
2023-04-18T01:08:10.222Z,84.22
2023-04-18T01:09:10.172Z,84.22
2023-04-18T01:10:10.167Z,84.43
2023-04-18T01:11:10.032Z,84.84
2023-04-18T01:12:09.950Z,85.30
2023-04-18T01:13:09.931Z,85.39
2023-04-18T01:14:09.872Z,85.09
2023-04-18T01:15:09.835Z,85.19
2023-04-18T01:16:09.770Z,85.09
2023-04-18T01:17:09.654Z,85.39
2023-04-18T01:18:09.604Z,85.50
2023-04-18T01:19:30.542Z,85.50
2023-04-18T01:20:09.471Z,85.60
2023-04-18T01:21:09.374Z,85.50
2023-04-18T01:22:09.392Z,85.60
2023-04-18T01:23:09.283Z,85.19
2023-04-18T01:24:09.215Z,85.30
2023-04-18T01:25:09.190Z,85.44
2023-04-18T01:26:09.061Z,85.75
2023-04-18T01:27:09.060Z,85.75
2023-04-18T01:28:08.996Z,85.75
2023-04-18T01:29:08.900Z,85.85
2023-04-18T01:30:08.837Z,85.75
2023-04-18T01:31:08.832Z,85.75
2023-04-18T01:32:08.741Z,85.64
2023-04-18T01:33:08.647Z,85.64
2023-04-18T01:34:08.610Z,85.64
2023-04-18T01:35:08.517Z,85.75
2023-04-18T01:36:08.431Z,85.95
2023-04-18T01:37:08.432Z,85.85
2023-04-18T01:38:08.336Z,85.64
2023-04-18T01:39:08.283Z,85.75
2023-04-18T01:40:08.238Z,85.64
2023-04-18T01:41:08.186Z,85.54
2023-04-18T01:42:08.082Z,85.75
2023-04-18T01:43:08.029Z,85.85
2023-04-18T01:44:07.959Z,85.85
2023-04-18T01:45:07.891Z,85.75
2023-04-18T01:46:07.847Z,85.85
2023-04-18T01:47:07.785Z,86.10
2023-04-18T01:48:07.700Z,86.10
2023-04-18T01:49:07.652Z,86.26
2023-04-18T01:50:07.567Z,86.30
2023-04-18T01:51:07.499Z,86.51
2023-04-18T01:52:07.467Z,86.92
2023-04-18T01:53:07.408Z,86.71
2023-04-18T01:54:07.302Z,86.71
2023-04-18T01:56:16.493Z,86.30
2023-04-18T01:57:17.377Z,86.51
2023-04-18T01:58:17.351Z,86.36
2023-04-18T01:59:17.280Z,86.26
2023-04-18T02:00:17.239Z,86.41
2023-04-18T02:01:17.196Z,86.61
2023-04-18T02:02:17.162Z,86.71
2023-04-18T02:03:17.222Z,86.57
2023-04-18T02:04:17.196Z,86.88
2023-04-18T02:05:16.929Z,86.88
2023-04-18T02:06:16.855Z,86.88
2023-04-18T02:07:16.873Z,86.57
2023-04-18T02:08:16.683Z,86.47
2023-04-18T02:09:16.662Z,86.57
2023-04-18T02:10:16.609Z,86.47
2023-04-18T02:11:16.516Z,86.16
2023-04-18T02:12:16.471Z,86.16
2023-04-18T02:13:16.444Z,85.95
2023-04-18T02:14:16.406Z,86.16
2023-04-18T02:15:16.266Z,86.36
2023-04-18T02:16:16.304Z,86.26
2023-04-18T02:17:16.116Z,86.36
2023-04-18T02:18:16.089Z,86.22
2023-04-18T02:19:16.069Z,86.02
2023-04-18T02:20:15.948Z,85.81
2023-04-18T02:21:15.892Z,85.71
2023-04-18T02:22:15.831Z,85.50
2023-04-18T02:23:15.784Z,85.50
2023-04-18T02:24:15.853Z,85.30
2023-04-18T02:25:15.678Z,85.19
2023-04-18T02:26:15.595Z,85.09
2023-04-18T02:27:15.504Z,85.39
2023-04-18T02:28:15.450Z,85.60
2023-04-18T02:29:15.382Z,85.57
2023-04-18T02:30:15.329Z,85.05
2023-04-18T02:31:36.263Z,84.84
2023-04-18T02:32:15.216Z,84.84
2023-04-18T02:33:15.129Z,84.64
2023-04-18T02:34:15.189Z,84.74
2023-04-18T02:35:15.004Z,84.64
2023-04-18T02:36:14.960Z,84.84
2023-04-18T02:37:14.889Z,84.94
2023-04-18T02:38:14.783Z,84.74
2023-04-18T02:39:14.749Z,85.36
2023-04-18T02:40:14.660Z,84.74
2023-04-18T02:41:14.645Z,84.43
2023-04-18T02:42:14.557Z,84.53
2023-04-18T02:43:14.512Z,84.33
2023-04-18T02:44:14.687Z,84.01
2023-04-18T02:45:14.373Z,84.12
2023-04-18T02:46:14.340Z,84.08
2023-04-18T02:47:14.247Z,84.12
2023-04-18T02:48:14.216Z,84.33
2023-04-18T02:49:14.126Z,84.33
2023-04-18T02:50:14.050Z,84.22
2023-04-18T02:51:14.010Z,84.84
2023-04-18T02:52:13.952Z,84.94
2023-04-18T02:53:13.888Z,84.33
2023-04-18T02:54:14.001Z,84.22
2023-04-18T02:55:13.722Z,84.22
2023-04-18T02:56:13.674Z,84.22
2023-04-18T02:57:13.609Z,84.33
2023-04-18T02:58:13.547Z,84.33
2023-04-18T02:59:13.476Z,84.22
2023-04-18T03:00:13.439Z,84.39
2023-04-18T03:01:13.432Z,84.39
2023-04-18T03:02:13.350Z,84.29
2023-04-18T03:03:13.252Z,84.49
2023-04-18T03:04:13.383Z,84.49
2023-04-18T03:05:13.153Z,84.84
2023-04-18T03:06:13.010Z,84.59
2023-04-18T03:08:22.202Z,84.70
2023-04-18T03:09:23.122Z,84.91
2023-04-18T03:10:23.077Z,84.49
2023-04-18T03:11:22.977Z,84.49
2023-04-18T03:12:22.950Z,84.59
2023-04-18T03:13:22.896Z,84.39
2023-04-18T03:14:22.812Z,84.19
2023-04-18T03:15:22.742Z,84.29
2023-04-18T03:16:22.835Z,84.49
2023-04-18T03:17:22.687Z,84.70
2023-04-18T03:18:22.552Z,84.80
2023-04-18T03:19:22.542Z,84.70
2023-04-18T03:20:22.428Z,84.80
2023-04-18T03:21:22.366Z,84.49
2023-04-18T03:22:22.277Z,84.70
2023-04-18T03:23:22.241Z,84.59
2023-04-18T03:24:22.162Z,84.91
2023-04-18T03:25:22.133Z,84.80
2023-04-18T03:26:22.022Z,84.70
2023-04-18T03:27:22.021Z,84.49
2023-04-18T03:28:21.929Z,84.59
2023-04-18T03:29:21.838Z,84.59
2023-04-18T03:30:21.792Z,84.70
2023-04-18T03:31:21.800Z,84.70
2023-04-18T03:32:21.701Z,84.80
2023-04-18T03:33:21.597Z,84.70
2023-04-18T03:34:21.508Z,84.59
2023-04-18T03:35:21.509Z,84.80
2023-04-18T03:36:21.415Z,85.01
2023-04-18T03:37:21.355Z,85.22
2023-04-18T03:38:21.337Z,85.57
2023-04-18T03:39:21.246Z,85.77
2023-04-18T03:40:21.138Z,85.57
2023-04-18T03:41:21.096Z,85.46
2023-04-18T03:42:21.036Z,85.46
2023-04-18T03:44:30.192Z,85.97
2023-04-18T03:45:31.130Z,85.67
2023-04-18T03:46:31.128Z,85.67
2023-04-18T03:47:31.055Z,85.25
2023-04-18T03:48:30.940Z,85.01
2023-04-18T03:49:30.862Z,84.91
2023-04-18T03:50:30.784Z,84.91
2023-04-18T03:51:30.766Z,85.11
2023-04-18T03:52:30.684Z,85.11
2023-04-18T03:53:30.650Z,85.11
2023-04-18T03:54:30.538Z,85.01
2023-04-18T03:55:30.509Z,85.05
2023-04-18T03:56:30.428Z,85.15
2023-04-18T03:57:30.345Z,85.01
2023-04-18T03:58:30.254Z,84.80
2023-04-18T03:59:30.215Z,84.80
2023-04-18T04:00:30.159Z,85.01
2023-04-18T04:01:30.119Z,85.01
2023-04-18T04:02:30.165Z,84.91
2023-04-18T04:03:30.006Z,84.80
2023-04-18T04:04:29.896Z,84.59
2023-04-18T04:05:29.843Z,84.59
2023-04-18T04:06:29.776Z,84.39
2023-04-18T04:07:29.709Z,84.29
2023-04-18T04:08:29.651Z,84.80
2023-04-18T04:09:29.584Z,84.91
2023-04-18T04:10:29.499Z,84.39
2023-04-18T04:11:29.456Z,84.19
2023-04-18T04:12:29.336Z,84.39
2023-04-18T04:13:29.600Z,84.59
2023-04-18T04:14:29.239Z,84.80
2023-04-18T04:15:29.175Z,85.22
2023-04-18T04:16:29.146Z,85.22
2023-04-18T04:17:29.085Z,85.01
2023-04-18T04:18:28.974Z,84.91
2023-04-18T04:19:28.899Z,84.70
2023-04-18T04:20:28.878Z,84.49
2023-04-18T04:21:28.820Z,84.25
2023-04-18T04:22:28.729Z,84.19
2023-04-18T04:23:28.636Z,84.39
2023-04-18T04:24:28.626Z,84.70
2023-04-18T04:25:28.549Z,84.39
2023-04-18T04:26:28.479Z,84.49
2023-04-18T04:27:28.433Z,84.39
2023-04-18T04:28:28.376Z,84.29
2023-04-18T04:29:28.279Z,84.49
2023-04-18T04:30:28.258Z,84.59
2023-04-18T04:31:28.144Z,84.49
2023-04-18T04:32:28.168Z,84.49
2023-04-18T04:33:28.039Z,84.80
2023-04-18T04:34:27.933Z,84.91
2023-04-18T04:35:27.902Z,84.70
2023-04-18T04:36:27.833Z,84.70
2023-04-18T04:37:48.754Z,85.22
2023-04-18T04:38:27.708Z,84.91
2023-04-18T04:39:27.695Z,84.91
2023-04-18T04:40:27.584Z,85.11
2023-04-18T04:41:27.501Z,84.91
2023-04-18T04:42:27.433Z,84.80
2023-04-18T04:43:27.410Z,84.49
2023-04-18T04:44:27.331Z,84.49
2023-04-18T04:45:27.291Z,84.70
2023-04-18T04:46:27.338Z,84.80
2023-04-18T04:47:27.209Z,84.80
2023-04-18T04:48:27.110Z,84.91
2023-04-18T04:49:27.025Z,84.91
2023-04-18T04:50:26.956Z,85.22
2023-04-18T04:51:26.887Z,85.11
2023-04-18T04:52:26.824Z,85.31
2023-04-18T04:53:26.768Z,85.22
2023-04-18T04:54:26.673Z,85.31
2023-04-18T04:55:47.637Z,85.52
2023-04-18T04:56:26.609Z,85.63
2023-04-18T04:57:26.533Z,85.73
2023-04-18T04:58:26.445Z,85.73
2023-04-18T04:59:26.356Z,85.83
2023-04-18T05:00:26.311Z,85.73
2023-04-18T05:01:26.284Z,85.94
2023-04-18T05:02:26.307Z,85.63
2023-04-18T05:03:26.239Z,85.42
2023-04-18T05:04:26.287Z,85.52
2023-04-18T05:05:26.005Z,85.42
2023-04-18T05:06:25.975Z,85.42
2023-04-18T05:07:25.894Z,85.52
2023-04-18T05:08:25.842Z,85.52
2023-04-18T05:09:25.769Z,85.28
2023-04-18T05:10:25.718Z,85.07
2023-04-18T05:11:25.637Z,85.17
2023-04-18T05:12:25.633Z,84.97
2023-04-18T05:14:34.667Z,84.97
2023-04-18T05:15:35.591Z,84.87
2023-04-18T05:16:35.561Z,85.07
2023-04-18T05:17:35.584Z,85.31
2023-04-18T05:18:35.372Z,85.38
2023-04-18T05:19:35.358Z,85.38
2023-04-18T05:20:35.288Z,85.17
2023-04-18T05:21:35.177Z,85.07
2023-04-18T05:22:35.172Z,85.17
2023-04-18T05:23:35.065Z,85.17
2023-04-18T05:24:35.022Z,85.49
2023-04-18T05:25:34.975Z,85.59
2023-04-18T05:26:34.864Z,85.79
2023-04-18T05:27:34.831Z,85.89
2023-04-18T05:28:34.770Z,85.79
2023-04-18T05:29:34.702Z,85.79
2023-04-18T05:30:34.617Z,85.83
2023-04-18T05:31:34.650Z,85.94
2023-04-18T05:32:34.601Z,86.15
2023-04-18T05:33:34.456Z,86.45
2023-04-18T05:34:35.315Z,86.55
2023-04-18T05:35:34.291Z,86.66
2023-04-18T05:36:34.290Z,86.21
2023-04-18T05:37:34.206Z,86.24
2023-04-18T05:38:34.129Z,86.45
2023-04-18T05:39:34.061Z,86.45
2023-04-18T05:40:34.008Z,86.45
2023-04-18T05:41:33.970Z,86.55
2023-04-18T05:42:33.904Z,86.72
2023-04-18T05:43:33.830Z,86.52
2023-04-18T05:44:33.751Z,86.21
2023-04-18T05:45:33.700Z,86.31
2023-04-18T05:46:33.622Z,86.41
2023-04-18T05:47:33.703Z,86.41
2023-04-18T05:48:33.500Z,86.31
2023-04-18T05:49:33.471Z,86.41
2023-04-18T05:50:33.351Z,86.61
2023-04-18T05:51:33.325Z,86.93
2023-04-18T05:52:33.239Z,86.93
2023-04-18T05:53:33.183Z,86.52
2023-04-18T05:54:33.115Z,86.41
2023-04-18T05:55:33.096Z,86.10
2023-04-18T05:56:32.961Z,86.10
2023-04-18T05:57:32.948Z,86.10
2023-04-18T05:58:32.858Z,86.00
2023-04-18T05:59:32.784Z,86.10
2023-04-18T06:00:32.730Z,86.41
2023-04-18T06:01:32.700Z,86.52
2023-04-18T06:02:32.640Z,86.41
2023-04-18T06:03:32.736Z,86.61
2023-04-18T06:04:32.712Z,86.61
2023-04-18T06:05:32.513Z,86.72
2023-04-18T06:06:32.324Z,86.61
2023-04-18T06:07:32.297Z,86.72
2023-04-18T06:08:32.210Z,86.93
2023-04-18T06:09:32.137Z,86.72
2023-04-18T06:10:32.127Z,86.82
2023-04-18T06:11:32.027Z,86.93
2023-04-18T06:12:31.957Z,87.13
2023-04-18T06:13:31.923Z,87.03
2023-04-18T06:14:31.853Z,87.13
2023-04-18T06:15:31.772Z,87.03
2023-04-18T06:16:31.728Z,87.44
2023-04-18T06:17:31.674Z,87.34
2023-04-18T06:18:31.575Z,87.13
2023-04-18T06:19:31.583Z,86.93
2023-04-18T06:20:31.460Z,86.82
2023-04-18T06:21:31.396Z,86.82
2023-04-18T06:22:31.358Z,86.82
2023-04-18T06:23:31.260Z,86.72
2023-04-18T06:24:31.355Z,86.82
2023-04-18T06:26:40.314Z,87.03
2023-04-18T06:27:41.270Z,87.13
2023-04-18T06:28:41.206Z,87.24
2023-04-18T06:29:41.085Z,87.24
2023-04-18T06:30:41.071Z,87.24
2023-04-18T06:31:41.045Z,87.03
2023-04-18T06:32:40.958Z,87.24
2023-04-18T06:33:40.830Z,87.24
2023-04-18T06:34:40.768Z,87.13
2023-04-18T06:35:40.702Z,87.13
2023-04-18T06:36:40.638Z,87.34
2023-04-18T06:37:40.605Z,87.34
2023-04-18T06:38:40.563Z,87.24
2023-04-18T06:39:40.496Z,87.24
2023-04-18T06:40:40.414Z,87.34
2023-04-18T06:41:40.352Z,87.34
2023-04-18T06:42:40.291Z,87.44
2023-04-18T06:44:03.831Z,87.44
2023-04-18T06:44:40.134Z,87.65
2023-04-18T06:45:40.152Z,87.75
2023-04-18T06:46:40.040Z,87.40
2023-04-18T06:47:40.015Z,87.71
2023-04-18T06:48:39.925Z,87.71
2023-04-18T06:49:39.852Z,87.60
2023-04-18T06:50:39.747Z,87.30
2023-04-18T06:51:39.710Z,87.09
2023-04-18T06:52:39.676Z,87.19
2023-04-18T06:53:39.582Z,87.19
2023-04-18T06:54:39.490Z,87.09
2023-04-18T06:55:39.503Z,87.09
2023-04-18T06:56:39.367Z,87.09
2023-04-18T06:57:39.330Z,87.19
2023-04-18T06:58:39.262Z,87.60
2023-04-18T06:59:39.222Z,87.75
2023-04-18T07:00:39.165Z,87.85
2023-04-18T07:01:39.127Z,87.96
2023-04-18T07:02:39.108Z,87.81
2023-04-18T07:03:39.010Z,88.06
2023-04-18T07:04:39.022Z,88.17
2023-04-18T07:05:38.829Z,88.37
2023-04-18T07:06:38.747Z,88.47
2023-04-18T07:07:38.701Z,88.68
2023-04-18T07:08:38.651Z,88.78
2023-04-18T07:09:38.582Z,88.89
2023-04-18T07:10:38.493Z,89.09
2023-04-18T07:11:38.437Z,89.09
2023-04-18T07:12:38.363Z,89.09
2023-04-18T07:13:38.322Z,88.74
2023-04-18T07:14:38.248Z,88.43
2023-04-18T07:15:38.149Z,88.33
2023-04-18T07:16:38.159Z,88.12
2023-04-18T07:17:38.053Z,88.12
2023-04-18T07:18:38.665Z,87.81
2023-04-18T07:19:38.385Z,87.81
2023-04-18T07:20:37.866Z,88.12
2023-04-18T07:21:37.789Z,88.23
2023-04-18T07:22:37.727Z,88.33
2023-04-18T07:23:37.689Z,88.43
2023-04-18T07:24:37.604Z,88.43
2023-04-18T07:25:37.561Z,88.43
2023-04-18T07:26:37.470Z,88.12
2023-04-18T07:27:37.432Z,88.02
2023-04-18T07:28:37.346Z,87.81
2023-04-18T07:29:37.289Z,87.71
2023-04-18T07:30:37.241Z,87.57
2023-04-18T07:31:37.197Z,87.67
2023-04-18T07:32:37.082Z,86.95
2023-04-18T07:33:37.000Z,86.74
2023-04-18T07:34:36.956Z,86.85
2023-04-18T07:35:36.930Z,87.15
2023-04-18T07:36:36.869Z,86.95
2023-04-18T07:37:36.790Z,87.05
2023-04-18T07:38:36.696Z,87.26
2023-04-18T07:39:36.651Z,87.26
2023-04-18T07:40:36.559Z,86.95
2023-04-18T07:41:36.554Z,87.05
2023-04-18T07:42:36.457Z,86.95
2023-04-18T07:43:36.400Z,86.74
2023-04-18T07:44:36.358Z,86.74
2023-04-18T07:45:36.269Z,86.85
2023-04-18T07:46:36.230Z,86.64
2023-04-18T07:47:36.176Z,86.74
2023-04-18T07:48:36.052Z,86.74
2023-04-18T07:49:36.026Z,86.60
2023-04-18T07:50:35.949Z,86.40
2023-04-18T07:51:35.857Z,86.29
2023-04-18T07:52:37.388Z,86.50
2023-04-18T07:53:35.782Z,86.80
2023-04-18T07:54:35.694Z,86.85
2023-04-18T07:55:35.674Z,86.80
2023-04-18T07:56:35.575Z,86.40
2023-04-18T07:57:35.502Z,86.60
2023-04-18T07:58:35.465Z,86.91
2023-04-18T07:59:35.356Z,86.60
2023-04-18T08:00:35.343Z,86.60
2023-04-18T08:01:35.232Z,86.70
2023-04-18T08:02:35.254Z,86.60
2023-04-18T08:03:35.233Z,86.29
2023-04-18T08:04:35.182Z,86.40
2023-04-18T08:05:35.115Z,86.15
2023-04-18T08:06:34.956Z,86.15
2023-04-18T08:07:34.846Z,86.05
2023-04-18T08:08:34.813Z,86.05
2023-04-18T08:09:34.747Z,86.05
2023-04-18T08:10:34.668Z,85.94
2023-04-18T08:11:34.655Z,85.63
2023-04-18T08:12:34.552Z,85.63
2023-04-18T08:13:34.520Z,85.53
2023-04-18T08:14:34.451Z,85.63
2023-04-18T08:15:34.379Z,85.43
2023-04-18T08:16:34.444Z,85.43
2023-04-18T08:17:34.336Z,85.43
2023-04-18T08:18:34.635Z,85.08
2023-04-18T08:19:34.106Z,85.33
2023-04-18T08:20:34.043Z,85.39
2023-04-18T08:21:33.976Z,85.39
2023-04-18T08:22:33.884Z,84.98
2023-04-18T08:23:33.874Z,84.88
2023-04-18T08:24:33.799Z,84.88
2023-04-18T08:25:33.740Z,84.77
2023-04-18T08:26:33.824Z,84.67
2023-04-18T08:27:33.601Z,84.88
2023-04-18T08:28:33.518Z,84.98
2023-04-18T08:29:33.502Z,84.98
2023-04-18T08:30:33.383Z,84.53
2023-04-18T08:31:33.463Z,84.74
2023-04-18T08:32:33.303Z,84.42
2023-04-18T08:33:33.215Z,84.42
2023-04-18T08:34:33.153Z,83.77
2023-04-18T08:35:33.055Z,83.77
2023-04-18T08:36:33.024Z,83.36
2023-04-18T08:37:32.974Z,83.46
2023-04-18T08:38:32.962Z,83.36
2023-04-18T08:39:32.826Z,83.05
2023-04-18T08:40:32.775Z,82.60
2023-04-18T08:41:32.705Z,82.40
2023-04-18T08:42:32.617Z,82.29
2023-04-18T08:43:32.596Z,82.19
2023-04-18T08:44:32.566Z,82.09
2023-04-18T08:45:32.453Z,82.40
2023-04-18T08:46:33.012Z,82.09
2023-04-18T08:47:32.409Z,81.95
2023-04-18T08:48:32.229Z,82.36
2023-04-18T08:49:53.177Z,82.15
2023-04-18T08:50:32.132Z,81.74
2023-04-18T08:51:32.039Z,81.54
2023-04-18T08:52:32.026Z,81.34
2023-04-18T08:53:31.973Z,80.92
2023-04-18T08:54:31.879Z,80.72
2023-04-18T08:55:31.879Z,81.13
2023-04-18T08:56:31.776Z,80.72
2023-04-18T08:57:31.668Z,80.82
2023-04-18T08:58:31.647Z,80.72
2023-04-18T08:59:31.557Z,80.78
2023-04-18T09:00:31.497Z,80.78
2023-04-18T09:01:31.454Z,81.20
2023-04-18T09:02:31.495Z,80.88
2023-04-18T09:03:31.358Z,80.07
2023-04-18T09:04:31.315Z,79.41
2023-04-18T09:05:31.223Z,79.21
2023-04-18T09:06:31.088Z,78.49
2023-04-18T09:07:52.037Z,78.70
2023-04-18T09:08:32.422Z,78.59
2023-04-18T09:09:30.922Z,78.70
2023-04-18T09:10:30.999Z,78.70
2023-04-18T09:11:30.814Z,78.28
2023-04-18T09:12:30.735Z,78.28
2023-04-18T09:13:30.674Z,78.35
2023-04-18T09:14:30.606Z,78.05
2023-04-18T09:15:30.547Z,77.64
2023-04-18T09:16:30.495Z,77.43
2023-04-18T09:17:30.477Z,77.73
2023-04-18T09:18:30.353Z,77.19
2023-04-18T09:19:30.314Z,76.37
2023-04-18T09:20:30.206Z,76.27
2023-04-18T09:21:30.192Z,76.27
2023-04-18T09:22:30.072Z,75.55
2023-04-18T09:23:30.028Z,75.10
2023-04-18T09:24:29.953Z,74.80
2023-04-18T09:25:50.909Z,74.08
2023-04-18T09:26:29.849Z,73.94
2023-04-18T09:27:29.819Z,73.94
2023-04-18T09:28:29.698Z,73.50
2023-04-18T09:29:29.660Z,74.29
2023-04-18T09:30:29.627Z,71.67
2023-04-18T09:31:29.578Z,71.87
2023-04-18T09:32:29.651Z,72.58
2023-04-18T09:33:29.412Z,71.56
2023-04-18T09:34:29.350Z,71.43
2023-04-18T09:35:29.249Z,70.17
2023-04-18T09:36:29.289Z,69.86
2023-04-18T09:37:29.170Z,69.46
2023-04-18T09:38:29.069Z,69.69
2023-04-18T09:39:29.062Z,69.69
2023-04-18T09:40:28.995Z,69.90
2023-04-18T09:41:28.927Z,69.76
2023-04-18T09:42:29.110Z,69.49
2023-04-18T09:44:37.925Z,69.38
2023-04-18T09:45:38.907Z,68.74
2023-04-18T09:46:38.856Z,68.30
2023-04-18T09:47:38.765Z,66.74
2023-04-18T09:48:38.687Z,66.17
2023-04-18T09:49:38.638Z,65.05
2023-04-18T09:50:38.556Z,65.66
2023-04-18T09:51:38.506Z,66.47
2023-04-18T09:52:38.437Z,65.16
2023-04-18T09:53:38.358Z,64.87
2023-04-18T09:54:38.301Z,65.39
2023-04-18T09:55:38.265Z,65.83
2023-04-18T09:56:38.209Z,65.31
2023-04-18T09:57:38.115Z,65.31
2023-04-18T09:58:38.051Z,65.31
2023-04-18T09:59:38.039Z,65.01
2023-04-18T10:00:37.933Z,64.81
2023-04-18T10:01:58.884Z,65.11
2023-04-18T10:02:37.876Z,65.11
2023-04-18T10:03:37.884Z,64.53
2023-04-18T10:04:37.795Z,64.43
2023-04-18T10:05:37.630Z,65.75
2023-04-18T10:06:37.557Z,65.11
2023-04-18T10:07:37.501Z,65.42
2023-04-18T10:08:37.431Z,64.70
2023-04-18T10:09:37.379Z,64.90
2023-04-18T10:10:38.922Z,64.29
2023-04-18T10:11:37.208Z,64.81
2023-04-18T10:12:37.143Z,64.50
2023-04-18T10:13:37.130Z,64.50
2023-04-18T10:14:37.039Z,65.52
2023-04-18T10:15:36.997Z,64.67
2023-04-18T10:16:36.997Z,64.67
2023-04-18T10:17:36.840Z,65.11
2023-04-18T10:18:36.802Z,65.22
2023-04-18T10:20:45.899Z,66.47
2023-04-18T10:21:46.853Z,67.29
2023-04-18T10:22:46.763Z,67.08
2023-04-18T10:23:46.697Z,66.57
2023-04-18T10:24:46.635Z,66.67
2023-04-18T10:25:46.600Z,66.54
2023-04-18T10:26:46.533Z,67.55
2023-04-18T10:27:46.452Z,66.94
2023-04-18T10:28:46.355Z,66.23
2023-04-18T10:29:46.343Z,65.92
2023-04-18T10:30:46.274Z,66.13
2023-04-18T10:31:46.275Z,66.23
2023-04-18T10:32:46.175Z,65.52
2023-04-18T10:33:52.795Z,65.19
2023-04-18T10:34:46.011Z,64.64
2023-04-18T10:35:45.942Z,64.20
2023-04-18T10:36:45.930Z,63.70
2023-04-18T10:37:45.820Z,63.59
2023-04-18T10:38:45.751Z,63.57
2023-04-18T10:39:45.685Z,63.13
2023-04-18T10:40:45.645Z,62.41
2023-04-18T10:41:45.594Z,62.41
2023-04-18T10:42:45.509Z,61.68
2023-04-18T10:43:45.446Z,61.27
2023-04-18T10:44:45.357Z,61.44
2023-04-18T10:45:45.314Z,61.47
2023-04-18T10:46:45.278Z,61.04
2023-04-18T10:47:45.264Z,62.74
2023-04-18T10:48:45.120Z,59.69
2023-04-18T10:49:45.080Z,59.77
2023-04-18T10:50:45.002Z,60.27
2023-04-18T10:51:44.937Z,60.27
2023-04-18T10:52:44.898Z,60.07
2023-04-18T10:53:44.814Z,59.56
2023-04-18T10:54:44.747Z,59.79
2023-04-18T10:55:44.715Z,60.30
2023-04-18T10:56:44.643Z,60.46
2023-04-18T10:57:44.540Z,60.56
2023-04-18T10:58:44.494Z,61.47
2023-04-18T10:59:44.460Z,61.51
2023-04-18T11:00:44.428Z,61.43
2023-04-18T11:01:44.326Z,61.76
2023-04-18T11:02:44.304Z,62.27
2023-04-18T11:03:44.236Z,62.07
2023-04-18T11:04:44.133Z,61.97
2023-04-18T11:05:44.061Z,61.87
2023-04-18T11:06:43.995Z,61.97
2023-04-18T11:07:44.101Z,62.37
2023-04-18T11:08:43.891Z,61.87
2023-04-18T11:09:45.425Z,61.56
2023-04-18T11:10:43.721Z,62.17
2023-04-18T11:11:43.712Z,62.27
2023-04-18T11:12:43.598Z,62.27
2023-04-18T11:13:43.580Z,62.37
2023-04-18T11:14:43.519Z,62.27
2023-04-18T11:15:43.464Z,62.40
2023-04-18T11:16:43.437Z,63.22
2023-04-18T11:17:43.357Z,62.51
2023-04-18T11:18:43.211Z,62.51
2023-04-18T11:19:43.217Z,62.27
2023-04-18T11:20:43.125Z,62.81
2023-04-18T11:21:43.050Z,62.81
2023-04-18T11:22:43.016Z,63.45
2023-04-18T11:23:42.905Z,64.06
2023-04-18T11:24:42.877Z,64.37
2023-04-18T11:25:42.933Z,64.47
2023-04-18T11:26:42.739Z,64.78
2023-04-18T11:27:42.699Z,64.47
2023-04-18T11:28:42.613Z,63.96
2023-04-18T11:29:42.570Z,63.96
2023-04-18T11:30:42.549Z,63.56
2023-04-18T11:31:42.482Z,63.76
2023-04-18T11:32:42.446Z,63.96
2023-04-18T11:33:42.325Z,63.56
2023-04-18T11:34:42.258Z,63.45
2023-04-18T11:35:42.150Z,63.04
2023-04-18T11:36:42.133Z,62.94
2023-04-18T11:37:42.351Z,63.04
2023-04-18T11:38:41.961Z,63.24
2023-04-18T11:39:41.965Z,63.45
2023-04-18T11:40:41.852Z,63.86
2023-04-18T11:41:41.802Z,63.65
2023-04-18T11:42:41.707Z,63.96
2023-04-18T11:43:41.678Z,63.73
2023-04-18T11:44:41.630Z,63.12
2023-04-18T11:45:41.580Z,63.62
2023-04-18T11:46:41.482Z,63.53
2023-04-18T11:47:41.482Z,62.81
2023-04-18T11:48:41.357Z,62.78
2023-04-18T11:49:41.315Z,62.58
2023-04-18T11:50:41.230Z,62.68
2023-04-18T11:51:41.136Z,62.37
2023-04-18T11:52:41.178Z,62.35
2023-04-18T11:53:41.059Z,61.97
2023-04-18T11:54:40.977Z,62.27
2023-04-18T11:55:40.928Z,62.27
2023-04-18T11:56:40.869Z,61.83
2023-04-18T11:57:40.824Z,62.04
2023-04-18T11:58:40.752Z,61.94
2023-04-18T11:59:40.659Z,62.24
2023-04-18T12:00:40.605Z,62.85
2023-04-18T12:01:40.577Z,62.24
2023-04-18T12:02:40.627Z,61.83
2023-04-18T12:03:40.589Z,61.51
2023-04-18T12:04:40.553Z,61.60
2023-04-18T12:05:40.408Z,61.91
2023-04-18T12:06:40.225Z,61.71
2023-04-18T12:09:19.044Z,61.83
2023-04-18T12:10:19.978Z,61.94
2023-04-18T12:11:19.887Z,62.75
2023-04-18T12:12:19.875Z,61.94
2023-04-18T12:13:19.810Z,61.22
2023-04-18T12:14:19.696Z,62.24
2023-04-18T12:15:19.656Z,61.15
2023-04-18T12:16:19.624Z,61.66
2023-04-18T12:17:19.572Z,61.25
2023-04-18T12:18:19.472Z,61.36
2023-04-18T12:19:19.431Z,61.36
2023-04-18T12:20:19.315Z,61.87
2023-04-18T12:21:19.286Z,62.37
2023-04-18T12:22:19.248Z,63.29
2023-04-18T12:23:19.156Z,64.00
2023-04-18T12:24:19.123Z,64.64
2023-04-18T12:25:19.042Z,65.16
2023-04-18T12:26:18.974Z,65.25
2023-04-18T12:27:18.962Z,65.66
2023-04-18T12:28:18.868Z,66.07
2023-04-18T12:29:18.801Z,65.86
2023-04-18T12:30:18.722Z,66.07
2023-04-18T12:31:18.755Z,66.27
2023-04-18T12:32:18.607Z,66.17
2023-04-18T12:33:18.556Z,66.38
2023-04-18T12:34:18.482Z,65.66
2023-04-18T12:35:18.370Z,65.97
2023-04-18T12:36:18.310Z,65.77
2023-04-18T12:37:18.265Z,65.83
2023-04-18T12:38:18.186Z,65.73
2023-04-18T12:39:18.145Z,65.63
2023-04-18T12:40:18.077Z,64.92
2023-04-18T12:41:17.990Z,64.72
2023-04-18T12:42:17.994Z,64.61
2023-04-18T12:43:17.926Z,64.92
2023-04-18T12:44:17.863Z,65.02
2023-04-18T12:45:17.796Z,64.89
2023-04-18T12:46:17.765Z,64.07
2023-04-18T12:47:17.764Z,64.00
2023-04-18T12:48:17.578Z,64.41
2023-04-18T12:49:17.528Z,64.41
2023-04-18T12:50:17.432Z,64.51
2023-04-18T12:51:17.393Z,64.92
2023-04-18T12:52:17.309Z,65.22
2023-04-18T12:53:17.252Z,65.22
2023-04-18T12:54:17.208Z,65.33
2023-04-18T12:55:17.151Z,65.43
2023-04-18T12:56:17.071Z,65.33
2023-04-18T12:57:17.058Z,65.43
2023-04-18T12:58:16.973Z,65.33
2023-04-18T12:59:16.909Z,65.83
2023-04-18T13:00:16.818Z,65.53
2023-04-18T13:01:37.796Z,65.02
2023-04-18T13:02:16.806Z,64.81
2023-04-18T13:03:16.897Z,64.75
2023-04-18T13:04:16.820Z,65.05
2023-04-18T13:05:16.537Z,64.95
2023-04-18T13:06:16.446Z,65.66